Time;durP1;ratioP1;P1;durP2;ratioP2;P2;SDS_P1;SDS_P2;PMS_P1;PMS_P2;Temp;Humidity;BMP_temperature;BMP_pressure;BME280_temperature;BME280_humidity;BME280_pressure;Samples;Min_cycle;Max_cycle;Signal;HPM_P1;HPM_P2
2022/04/24 00:02:25;;;;;;;;;;;13.30;99.90;;;;;;6247988;23;19978;-81
2022/04/24 00:04:51;;;;;;;;;;;13.30;99.90;;;;;;6248461;22;19908;-81
2022/04/24 00:07:16;;;;;;;;;;;13.30;99.90;;;;;;6247020;23;20286;-82
2022/04/24 00:09:42;;;;;;;;;;;13.30;99.90;;;;;;6245494;23;19911;-82
2022/04/24 00:12:09;;;;;;;;;;;13.20;99.90;;;;;;6245743;23;19986;-82
2022/04/24 00:14:34;;;;;;;;;;;13.20;99.90;;;;;;6246409;22;19904;-82
2022/04/24 00:17:00;;;;;;;;;;;13.20;99.90;;;;;;6246574;23;19985;-82
2022/04/24 00:19:25;;;;;;;;;;;13.20;99.90;;;;;;6245307;23;19914;-82
2022/04/24 00:21:50;;;;;;;;;;;13.20;99.90;;;;;;6245861;23;19908;-82
2022/04/24 00:24:16;;;;;;;;;;;13.10;99.90;;;;;;6252553;22;19907;-80
2022/04/24 00:26:41;;;;;;;;;;;13.10;99.90;;;;;;6283677;22;20360;-80
2022/04/24 00:29:07;;;;;;;;;;;13.10;99.90;;;;;;6284492;22;19913;-80
2022/04/24 00:31:33;;;;;;;;;;;13.00;99.90;;;;;;6312710;22;19903;-81
2022/04/24 00:33:58;;;;;;;;;;;13.00;99.90;;;;;;6285126;22;19950;-81
2022/04/24 00:36:23;;;;;;;;;;;13.00;99.90;;;;;;6285444;22;19956;-81
2022/04/24 00:38:49;;;;;;;;;;;12.90;99.90;;;;;;6283854;22;19930;-81
2022/04/24 00:41:14;;;;;;;;;;;12.90;99.90;;;;;;6312533;22;19911;-81
2022/04/24 00:43:41;;;;;;;;;;;12.90;99.90;;;;;;6283965;22;20313;-81
2022/04/24 00:46:36;;;;;;;;;;;12.90;99.90;;;;;;6313010;22;19925;-81
2022/04/24 00:49:01;;;;;;;;;;;12.90;99.90;;;;;;6312355;22;19910;-81
2022/04/24 00:51:28;;;;;;;;;;;12.80;99.90;;;;;;6285720;22;19907;-81
2022/04/24 00:53:54;;;;;;;;;;;12.80;99.90;;;;;;6312806;22;19958;-81
2022/04/24 00:56:19;;;;;;;;;;;12.80;99.90;;;;;;6285618;22;19903;-81
2022/04/24 00:58:45;;;;;;;;;;;12.80;99.90;;;;;;6285328;22;19961;-81
2022/04/24 01:01:11;;;;;;;;;;;12.70;99.90;;;;;;6312706;22;19903;-81
2022/04/24 01:03:37;;;;;;;;;;;12.70;99.90;;;;;;6286165;22;19903;-81
2022/04/24 01:06:03;;;;;;;;;;;12.60;99.90;;;;;;6285612;22;19922;-81
2022/04/24 01:08:28;;;;;;;;;;;12.60;99.90;;;;;;6286101;22;20246;-82
2022/04/24 01:10:54;;;;;;;;;;;12.50;99.90;;;;;;6313365;22;20305;-81
2022/04/24 01:13:19;;;;;;;;;;;12.50;99.90;;;;;;6313410;22;19930;-81
2022/04/24 01:15:45;;;;;;;;;;;12.50;99.90;;;;;;6312751;22;20337;-81
2022/04/24 01:18:11;;;;;;;;;;;12.50;99.90;;;;;;6285346;22;19907;-81
2022/04/24 01:20:36;;;;;;;;;;;12.50;99.90;;;;;;6285941;22;19913;-81
2022/04/24 01:23:02;;;;;;;;;;;12.50;99.90;;;;;;6312985;22;20396;-81
2022/04/24 01:25:27;;;;;;;;;;;12.40;99.90;;;;;;6285355;22;19964;-82
2022/04/24 01:27:53;;;;;;;;;;;12.40;99.90;;;;;;6284673;22;19918;-82
2022/04/24 01:30:18;;;;;;;;;;;12.40;99.90;;;;;;6312564;22;19978;-81
2022/04/24 01:32:44;;;;;;;;;;;12.30;99.90;;;;;;6285057;22;20248;-82
2022/04/24 01:35:11;;;;;;;;;;;12.30;99.90;;;;;;6285268;22;19952;-82
2022/04/24 01:37:37;;;;;;;;;;;12.30;99.90;;;;;;6311781;22;19936;-81
2022/04/24 01:40:02;;;;;;;;;;;12.20;99.90;;;;;;6285419;22;19986;-82
2022/04/24 01:42:28;;;;;;;;;;;12.20;99.90;;;;;;6311090;22;19903;-82
2022/04/24 01:44:53;;;;;;;;;;;12.20;99.90;;;;;;6283007;22;19933;-81
2022/04/24 01:47:19;;;;;;;;;;;12.10;99.90;;;;;;6285536;22;19945;-82
2022/04/24 01:49:44;;;;;;;;;;;12.10;99.90;;;;;;6312532;22;19903;-82
2022/04/24 01:52:10;;;;;;;;;;;12.00;99.90;;;;;;6285627;22;19903;-82
2022/04/24 01:54:35;;;;;;;;;;;12.00;99.90;;;;;;6311473;22;19903;-82
2022/04/24 01:57:01;;;;;;;;;;;12.00;99.90;;;;;;6284407;22;20333;-81
2022/04/24 01:59:26;;;;;;;;;;;11.90;99.90;;;;;;6312597;22;19907;-82
2022/04/24 02:01:52;;;;;;;;;;;11.90;99.90;;;;;;6284747;22;19922;-81
2022/04/24 02:04:23;;;;;;;;;;;11.90;99.90;;;;;;6285075;22;19903;-82
2022/04/24 02:06:49;;;;;;;;;;;11.80;99.90;;;;;;6312543;22;19899;-82
2022/04/24 02:09:14;;;;;;;;;;;11.80;99.90;;;;;;6285244;22;19915;-82
2022/04/24 02:11:39;;;;;;;;;;;11.70;99.90;;;;;;6312951;22;19918;-82
2022/04/24 02:14:05;;;;;;;;;;;11.70;99.90;;;;;;6284856;22;19903;-81
2022/04/24 02:16:30;;;;;;;;;;;11.70;99.90;;;;;;6285247;22;19903;-82
2022/04/24 02:18:56;;;;;;;;;;;11.60;99.90;;;;;;6284105;22;19937;-82
2022/04/24 02:21:21;;;;;;;;;;;11.60;99.90;;;;;;6284990;22;19972;-81
2022/04/24 02:23:47;;;;;;;;;;;11.50;99.90;;;;;;6284529;22;19903;-82
2022/04/24 02:26:12;;;;;;;;;;;11.50;99.90;;;;;;6284399;22;19918;-82
2022/04/24 02:28:38;;;;;;;;;;;11.40;99.90;;;;;;6311350;22;19903;-81
2022/04/24 02:31:03;;;;;;;;;;;11.30;99.90;;;;;;6312715;22;19918;-82
2022/04/24 02:33:29;;;;;;;;;;;11.30;99.90;;;;;;6311898;22;19953;-82
2022/04/24 02:35:54;;;;;;;;;;;11.20;99.90;;;;;;6312077;22;19991;-82
2022/04/24 02:38:19;;;;;;;;;;;11.20;99.90;;;;;;6311978;22;19907;-81
2022/04/24 02:40:45;;;;;;;;;;;11.20;99.90;;;;;;6284079;22;19978;-81
2022/04/24 02:43:10;;;;;;;;;;;11.10;99.90;;;;;;6284915;22;19907;-82
2022/04/24 02:45:36;;;;;;;;;;;11.10;99.90;;;;;;6283383;22;19911;-81
2022/04/24 02:48:03;;;;;;;;;;;11.00;99.90;;;;;;6282875;22;19903;-81
2022/04/24 02:50:28;;;;;;;;;;;11.00;99.90;;;;;;6317021;22;19941;-81
2022/04/24 02:52:55;;;;;;;;;;;10.90;99.90;;;;;;6283294;22;19907;-81
2022/04/24 02:55:21;;;;;;;;;;;10.90;99.90;;;;;;6314315;22;19934;-81
2022/04/24 02:57:46;;;;;;;;;;;10.90;99.90;;;;;;6310345;22;19961;-81
2022/04/24 03:00:12;;;;;;;;;;;10.80;99.90;;;;;;6311287;22;19903;-81
2022/04/24 03:02:42;;;;;;;;;;;10.80;99.90;;;;;;6285089;22;19968;-81
2022/04/24 03:05:18;;;;;;;;;;;10.80;99.90;;;;;;6283337;22;19907;-81
2022/04/24 03:07:43;;;;;;;;;;;10.70;99.90;;;;;;6310243;22;19942;-81
2022/04/24 03:10:09;;;;;;;;;;;10.70;99.90;;;;;;6284364;22;19910;-81
2022/04/24 03:12:35;;;;;;;;;;;10.70;99.90;;;;;;6282549;22;19938;-80
2022/04/24 03:15:02;;;;;;;;;;;10.70;99.90;;;;;;6310564;22;19929;-81
2022/04/24 03:17:29;;;;;;;;;;;10.60;99.90;;;;;;6282974;22;19903;-81
2022/04/24 03:19:54;;;;;;;;;;;10.60;99.90;;;;;;6310219;22;19907;-81
2022/04/24 03:22:20;;;;;;;;;;;10.60;99.90;;;;;;6284540;22;19910;-81
2022/04/24 03:24:45;;;;;;;;;;;10.60;99.90;;;;;;6283224;22;19950;-81
2022/04/24 03:27:11;;;;;;;;;;;10.50;99.90;;;;;;6310755;22;20373;-81
2022/04/24 03:29:37;;;;;;;;;;;10.50;99.90;;;;;;6287813;22;19907;-81
2022/04/24 03:32:02;;;;;;;;;;;10.50;99.90;;;;;;6295524;22;19911;-81
2022/04/24 03:34:28;;;;;;;;;;;10.50;99.90;;;;;;6314171;22;19903;-82
2022/04/24 03:36:53;;;;;;;;;;;10.50;99.90;;;;;;6310696;22;19937;-81
2022/04/24 03:39:20;;;;;;;;;;;10.40;99.90;;;;;;6311705;22;19907;-80
2022/04/24 03:41:45;;;;;;;;;;;10.40;99.90;;;;;;6311149;22;19941;-81
2022/04/24 03:44:11;;;;;;;;;;;10.40;99.90;;;;;;6284087;22;19912;-82
2022/04/24 03:46:36;;;;;;;;;;;10.40;99.90;;;;;;6311030;22;19931;-81
2022/04/24 03:49:02;;;;;;;;;;;10.40;99.90;;;;;;6311501;22;19907;-81
2022/04/24 03:51:27;;;;;;;;;;;10.40;99.90;;;;;;6283913;22;19903;-81
2022/04/24 03:53:52;;;;;;;;;;;10.30;99.90;;;;;;6283284;22;19997;-81
2022/04/24 03:56:18;;;;;;;;;;;10.30;99.90;;;;;;6311685;22;19931;-81
2022/04/24 03:58:43;;;;;;;;;;;10.30;99.90;;;;;;6310267;22;19914;-81
2022/04/24 04:01:09;;;;;;;;;;;10.20;99.90;;;;;;6312920;22;19926;-81
2022/04/24 04:03:34;;;;;;;;;;;10.20;99.90;;;;;;6312837;22;19903;-81
2022/04/24 04:06:00;;;;;;;;;;;10.20;99.90;;;;;;6312471;22;19911;-80
2022/04/24 04:08:25;;;;;;;;;;;10.10;99.90;;;;;;6312575;22;19950;-80
2022/04/24 04:10:51;;;;;;;;;;;10.10;99.90;;;;;;6312027;22;20060;-80
2022/04/24 04:13:16;;;;;;;;;;;10.10;99.90;;;;;;6285072;22;19910;-80
2022/04/24 04:15:41;;;;;;;;;;;10.00;99.90;;;;;;6284309;22;19903;-80
2022/04/24 04:18:07;;;;;;;;;;;10.00;99.90;;;;;;6284736;22;19914;-80
2022/04/24 04:20:33;;;;;;;;;;;10.00;99.90;;;;;;6312146;22;20343;-80
2022/04/24 04:22:58;;;;;;;;;;;10.00;99.90;;;;;;6312745;22;20314;-80
2022/04/24 04:25:24;;;;;;;;;;;10.00;99.90;;;;;;6311966;22;19911;-81
2022/04/24 04:27:50;;;;;;;;;;;10.00;99.90;;;;;;6311236;22;19903;-81
2022/04/24 04:30:16;;;;;;;;;;;10.00;99.90;;;;;;6283932;22;19907;-81
2022/04/24 04:32:41;;;;;;;;;;;10.00;99.90;;;;;;6284316;22;19913;-81
2022/04/24 04:35:09;;;;;;;;;;;10.00;99.90;;;;;;6310625;22;19985;-80
2022/04/24 04:37:39;;;;;;;;;;;10.00;99.90;;;;;;6283760;22;19910;-80
2022/04/24 04:40:06;;;;;;;;;;;10.00;99.90;;;;;;6312773;22;19937;-81
2022/04/24 04:42:31;;;;;;;;;;;10.10;99.90;;;;;;6284287;22;20017;-80
2022/04/24 04:45:00;;;;;;;;;;;10.10;99.90;;;;;;6310555;22;19903;-80
2022/04/24 04:47:27;;;;;;;;;;;10.10;99.90;;;;;;6311879;22;19903;-80
2022/04/24 04:49:53;;;;;;;;;;;10.10;99.90;;;;;;6311578;22;19910;-80
2022/04/24 04:52:18;;;;;;;;;;;10.20;99.90;;;;;;6284357;22;19902;-81
2022/04/24 04:54:44;;;;;;;;;;;10.20;99.90;;;;;;6312338;22;20296;-80
2022/04/24 04:57:09;;;;;;;;;;;10.30;99.90;;;;;;6284500;22;19923;-81
2022/04/24 04:59:35;;;;;;;;;;;10.30;99.90;;;;;;6284196;22;19911;-80
2022/04/24 05:02:00;;;;;;;;;;;10.40;99.90;;;;;;6312145;22;20289;-80
2022/04/24 05:04:26;;;;;;;;;;;10.50;99.90;;;;;;6312410;22;19903;-80
2022/04/24 05:06:51;;;;;;;;;;;10.60;99.90;;;;;;6311126;22;19957;-80
2022/04/24 05:09:16;;;;;;;;;;;10.80;99.90;;;;;;6284610;22;19910;-81
2022/04/24 05:11:42;;;;;;;;;;;10.90;99.90;;;;;;6283952;22;20273;-83
2022/04/24 05:14:07;;;;;;;;;;;11.10;99.90;;;;;;6283914;22;19942;-81
2022/04/24 05:16:33;;;;;;;;;;;11.20;99.90;;;;;;6311275;22;19914;-80
2022/04/24 05:18:58;;;;;;;;;;;11.70;99.90;;;;;;6311669;22;19954;-81
2022/04/24 05:21:24;;;;;;;;;;;13.30;99.90;;;;;;6311544;22;19985;-81
2022/04/24 05:23:50;;;;;;;;;;;14.60;99.90;;;;;;6312368;22;20311;-81
2022/04/24 05:26:15;;;;;;;;;;;15.70;99.90;;;;;;6311590;22;19990;-81
2022/04/24 05:28:41;;;;;;;;;;;17.00;99.90;;;;;;6285222;22;19903;-81
2022/04/24 05:31:06;;;;;;;;;;;18.60;99.90;;;;;;6286321;22;19985;-82
2022/04/24 05:33:32;;;;;;;;;;;20.10;99.90;;;;;;6313769;22;19903;-80
2022/04/24 05:35:57;;;;;;;;;;;21.40;99.90;;;;;;6285726;22;19947;-80
2022/04/24 05:38:23;;;;;;;;;;;22.80;99.90;;;;;;6285542;22;19911;-80
2022/04/24 05:40:48;;;;;;;;;;;23.70;99.90;;;;;;6285081;22;19907;-80
2022/04/24 05:43:14;;;;;;;;;;;24.30;99.90;;;;;;6285035;22;19903;-80
2022/04/24 05:45:39;;;;;;;;;;;22.00;99.90;;;;;;6311497;22;19910;-80
2022/04/24 05:48:05;;;;;;;;;;;19.90;99.90;;;;;;6311438;22;19913;-80
2022/04/24 05:50:30;;;;;;;;;;;18.20;99.90;;;;;;6310476;22;19903;-80
2022/04/24 05:52:56;;;;;;;;;;;16.80;99.90;;;;;;6284688;22;20034;-80
2022/04/24 05:55:22;;;;;;;;;;;15.90;99.90;;;;;;6284729;22;19907;-80
2022/04/24 05:57:50;;;;;;;;;;;15.30;99.90;;;;;;6310040;22;20249;-82
2022/04/24 06:00:16;;;;;;;;;;;14.60;99.90;;;;;;6311614;22;19922;-79
2022/04/24 06:02:42;;;;;;;;;;;14.10;99.90;;;;;;6281873;22;19903;-79
2022/04/24 06:05:08;;;;;;;;;;;13.70;99.90;;;;;;6311415;22;19903;-79
2022/04/24 06:07:34;;;;;;;;;;;13.60;99.90;;;;;;6282128;22;20252;-79
2022/04/24 06:09:59;;;;;;;;;;;13.50;99.90;;;;;;6311782;22;19981;-80
2022/04/24 06:12:24;;;;;;;;;;;13.50;99.90;;;;;;6311246;22;19903;-79
2022/04/24 06:14:50;;;;;;;;;;;13.50;99.90;;;;;;6311563;22;19903;-79
2022/04/24 06:17:15;;;;;;;;;;;13.50;99.90;;;;;;6310087;22;19903;-80
2022/04/24 06:19:41;;;;;;;;;;;13.70;99.90;;;;;;6283063;22;19918;-79
2022/04/24 06:22:06;;;;;;;;;;;13.90;99.90;;;;;;6283782;22;19913;-79
2022/04/24 06:27:04;;;;;;;;;;;13.90;99.90;;;;;;6310316;22;19925;-83
2022/04/24 06:29:30;;;;;;;;;;;14.10;99.90;;;;;;6311216;22;19902;-82
2022/04/24 06:31:55;;;;;;;;;;;14.30;99.90;;;;;;6282873;22;19955;-84
2022/04/24 06:34:21;;;;;;;;;;;17.10;99.90;;;;;;6283121;22;20282;-85
2022/04/24 06:36:46;;;;;;;;;;;19.70;99.90;;;;;;6339656;22;19902;-82
2022/04/24 06:39:11;;;;;;;;;;;22.30;99.90;;;;;;6343288;22;19981;-83
2022/04/24 06:41:37;;;;;;;;;;;25.20;99.90;;;;;;6341686;22;19902;-84
2022/04/24 06:44:02;;;;;;;;;;;25.10;99.90;;;;;;6315415;22;19981;-82
2022/04/24 06:46:28;;;;;;;;;;;27.20;99.90;;;;;;6342295;22;19903;-84
2022/04/24 06:48:53;;;;;;;;;;;29.30;99.90;;;;;;6314915;22;19914;-83
2022/04/24 06:51:19;;;;;;;;;;;29.60;99.90;;;;;;6342481;22;20278;-82
2022/04/24 06:53:44;;;;;;;;;;;28.40;99.90;;;;;;6342487;22;19946;-83
2022/04/24 06:56:10;;;;;;;;;;;29.10;99.90;;;;;;6314604;22;19903;-84
2022/04/24 06:58:35;;;;;;;;;;;26.00;99.90;;;;;;6341270;22;19907;-82
2022/04/24 07:01:01;;;;;;;;;;;23.60;99.90;;;;;;6314708;22;20332;-84
2022/04/24 07:03:28;;;;;;;;;;;22.10;99.90;;;;;;6342371;22;20214;-80
2022/04/24 07:05:53;;;;;;;;;;;21.20;99.90;;;;;;6341525;22;20217;-83
2022/04/24 07:08:19;;;;;;;;;;;20.50;99.90;;;;;;6314165;22;19911;-82
2022/04/24 07:10:45;;;;;;;;;;;20.60;99.90;;;;;;6340776;22;20004;-83
2022/04/24 07:13:11;;;;;;;;;;;22.00;99.90;;;;;;6313881;22;19902;-83
2022/04/24 07:15:38;;;;;;;;;;;22.50;99.90;;;;;;6341563;22;19906;-84
2022/04/24 07:18:05;;;;;;;;;;;23.30;99.90;;;;;;6342726;22;19902;-85
2022/04/24 07:20:30;;;;;;;;;;;26.90;99.90;;;;;;6344355;22;19918;-82
2022/04/24 07:22:58;;;;;;;;;;;31.10;99.90;;;;;;6342667;22;19952;-85
2022/04/24 07:26:13;;;;;;;;;;;35.90;99.90;;;;;;5124915;27;824757;-80
2022/04/24 07:28:42;;;;;;;;;;;37.60;99.90;;;;;;5174617;27;19911;-83
2022/04/24 07:31:07;;;;;;;;;;;35.40;99.90;;;;;;5155306;27;20332;-84
2022/04/24 07:33:33;;;;;;;;;;;36.00;99.90;;;;;;5165582;27;19963;-84
2022/04/24 07:35:59;;;;;;;;;;;35.20;99.90;;;;;;5164436;27;20352;-83
2022/04/24 07:38:24;;;;;;;;;;;34.20;99.90;;;;;;5156014;27;19933;-81
2022/04/24 07:40:50;;;;;;;;;;;35.20;99.90;;;;;;5158922;27;20520;-84
2022/04/24 07:43:15;;;;;;;;;;;35.30;99.90;;;;;;5172932;27;19911;-81
2022/04/24 07:45:41;;;;;;;;;;;34.20;99.90;;;;;;5172219;27;19915;-84
2022/04/24 07:48:08;;;;;;;;;;;35.40;99.90;;;;;;5172642;27;19941;-84
2022/04/24 07:50:34;;;;;;;;;;;36.30;99.90;;;;;;5167143;27;19911;-83
2022/04/24 07:53:00;;;;;;;;;;;35.90;99.90;;;;;;5150436;27;20493;-83
2022/04/24 07:55:26;;;;;;;;;;;34.60;99.90;;;;;;5153934;27;19911;-82
2022/04/24 07:57:53;;;;;;;;;;;33.70;99.90;;;;;;5151388;27;19918;-84
2022/04/24 08:00:21;;;;;;;;;;;32.60;99.90;;;;;;5172333;27;19911;-81
2022/04/24 08:02:48;;;;;;;;;;;30.90;99.90;;;;;;5168638;27;19911;-82
2022/04/24 08:05:25;;;;;;;;;;;29.30;99.90;;;;;;5155475;27;19915;-84
2022/04/24 08:07:51;;;;;;;;;;;28.20;99.90;;;;;;5170211;27;19912;-83
2022/04/24 08:10:17;;;;;;;;;;;28.60;99.90;;;;;;5167467;27;19950;-82
2022/04/24 08:12:42;;;;;;;;;;;28.20;99.90;;;;;;5170682;27;19945;-86
2022/04/24 08:15:08;;;;;;;;;;;29.90;99.90;;;;;;5152378;27;19934;-86
2022/04/24 08:17:33;;;;;;;;;;;31.50;99.90;;;;;;5172486;27;20009;-82
2022/04/24 08:19:59;;;;;;;;;;;31.90;99.90;;;;;;5169956;27;19911;-82
2022/04/24 08:22:24;;;;;;;;;;;34.20;99.90;;;;;;5169495;27;20457;-85
2022/04/24 08:24:49;;;;;;;;;;;35.40;99.90;;;;;;5170392;27;19923;-82
2022/04/24 08:27:15;;;;;;;;;;;37.70;99.90;;;;;;5168662;27;19911;-84
2022/04/24 08:29:40;;;;;;;;;;;38.50;99.90;;;;;;5166748;27;21881;-82
2022/04/24 08:32:06;;;;;;;;;;;38.80;99.90;;;;;;5164776;27;19918;-84
2022/04/24 08:34:31;;;;;;;;;;;39.50;99.90;;;;;;5170328;27;19911;-82
2022/04/24 08:36:57;;;;;;;;;;;40.40;99.90;;;;;;5155261;27;19920;-84
2022/04/24 08:39:22;;;;;;;;;;;40.30;99.90;;;;;;5156195;27;19918;-82
2022/04/24 08:41:49;;;;;;;;;;;39.00;99.90;;;;;;5154023;27;19911;-84
2022/04/24 08:44:14;;;;;;;;;;;39.70;99.90;;;;;;5155251;27;21739;-84
2022/04/24 08:46:40;;;;;;;;;;;39.60;99.90;;;;;;5155720;27;19911;-86
2022/04/24 08:49:08;;;;;;;;;;;40.00;99.90;;;;;;5151278;27;19911;-83
2022/04/24 08:51:33;;;;;;;;;;;39.30;99.90;;;;;;5152950;27;19911;-83
2022/04/24 08:54:00;;;;;;;;;;;40.10;99.90;;;;;;5153685;27;20431;-82
2022/04/24 08:56:25;;;;;;;;;;;39.80;99.90;;;;;;5150737;27;19911;-81
2022/04/24 08:58:51;;;;;;;;;;;41.20;99.90;;;;;;5134975;27;20005;-83
2022/04/24 09:01:16;;;;;;;;;;;41.50;99.90;;;;;;5152169;27;20271;-84
2022/04/24 09:03:42;;;;;;;;;;;39.50;99.90;;;;;;5137683;27;19911;-83
2022/04/24 09:06:18;;;;;;;;;;;40.20;99.90;;;;;;5131467;27;19960;-84
2022/04/24 09:08:43;;;;;;;;;;;40.10;99.90;;;;;;5153036;27;19915;-83
2022/04/24 09:11:09;;;;;;;;;;;40.50;99.90;;;;;;5153178;27;19912;-83
2022/04/24 09:16:24;;;;;;;;;;;40.70;99.90;;;;;;5154957;27;20152;-82
2022/04/24 09:18:49;;;;;;;;;;;40.90;99.90;;;;;;5139427;27;19998;-82
2022/04/24 09:21:15;;;;;;;;;;;41.70;99.90;;;;;;5155871;27;20019;-82
2022/04/24 09:23:44;;;;;;;;;;;41.20;99.90;;;;;;5135517;27;20278;-83
2022/04/24 09:26:18;;;;;;;;;;;40.30;99.90;;;;;;5128462;27;19938;-85
2022/04/24 09:28:44;;;;;;;;;;;40.50;99.90;;;;;;5136982;27;19963;-81
2022/04/24 09:31:10;;;;;;;;;;;39.70;99.90;;;;;;5154453;27;20343;-82
2022/04/24 09:33:37;;;;;;;;;;;39.10;99.90;;;;;;5155990;27;19911;-83
2022/04/24 09:36:02;;;;;;;;;;;39.80;99.90;;;;;;5154732;27;19919;-83
2022/04/24 09:38:28;;;;;;;;;;;40.00;99.90;;;;;;5155489;27;19933;-85
2022/04/24 09:40:53;;;;;;;;;;;40.30;99.90;;;;;;5135993;27;20410;-85
2022/04/24 09:43:22;;;;;;;;;;;39.30;99.90;;;;;;5150469;27;20274;-82
2022/04/24 09:45:53;;;;;;;;;;;38.10;99.90;;;;;;5154043;27;19957;-84
2022/04/24 09:48:20;;;;;;;;;;;38.70;99.90;;;;;;5154450;27;19911;-82
2022/04/24 09:50:45;;;;;;;;;;;37.40;99.90;;;;;;5153506;27;19918;-82
2022/04/24 09:53:13;;;;;;;;;;;37.30;99.90;;;;;;5153465;27;19911;-83
2022/04/24 09:55:40;;;;;;;;;;;37.70;99.90;;;;;;5154248;27;19911;-85
2022/04/24 09:58:06;;;;;;;;;;;38.40;99.90;;;;;;5144154;27;19911;-80
2022/04/24 10:00:32;;;;;;;;;;;37.80;99.90;;;;;;5151632;27;19918;-81
2022/04/24 10:02:58;;;;;;;;;;;36.50;99.90;;;;;;5153790;27;19915;-82
2022/04/24 10:05:28;;;;;;;;;;;35.50;99.90;;;;;;5148821;27;19959;-83
2022/04/24 10:07:53;;;;;;;;;;;35.20;99.90;;;;;;5154830;27;19911;-84
2022/04/24 10:10:19;;;;;;;;;;;36.40;99.90;;;;;;5155820;27;19918;-81
2022/04/24 10:12:48;;;;;;;;;;;36.50;99.90;;;;;;5134375;27;19911;-83
2022/04/24 10:15:16;;;;;;;;;;;36.70;99.90;;;;;;5154258;27;20620;-81
2022/04/24 10:18:10;;;;;;;;;;;37.10;99.90;;;;;;5154652;27;19911;-83
2022/04/24 10:20:55;;;;;;;;;;;36.70;99.90;;;;;;5125757;27;20390;-83
2022/04/24 10:23:32;;;;;;;;;;;36.40;99.90;;;;;;5154897;27;20015;-81
2022/04/24 10:25:57;;;;;;;;;;;35.10;99.90;;;;;;5153421;27;19965;-82
2022/04/24 10:28:27;;;;;;;;;;;34.80;99.90;;;;;;5153005;27;19915;-82
2022/04/24 10:30:59;;;;;;;;;;;34.40;99.90;;;;;;5146836;27;19912;-83
2022/04/24 10:33:25;;;;;;;;;;;34.00;99.90;;;;;;5155369;27;19911;-82
2022/04/24 10:35:55;;;;;;;;;;;34.20;99.90;;;;;;5154825;27;19911;-84
2022/04/24 10:38:22;;;;;;;;;;;34.20;99.90;;;;;;5152735;27;19934;-82
2022/04/24 10:41:14;;;;;;;;;;;34.80;99.90;;;;;;5136862;27;19918;-83
2022/04/24 10:43:40;;;;;;;;;;;35.20;99.90;;;;;;5132143;27;19911;-83
2022/04/24 10:46:17;;;;;;;;;;;35.90;99.90;;;;;;5153481;27;19978;-83
2022/04/24 10:48:42;;;;;;;;;;;36.20;99.90;;;;;;5135738;27;19930;-84
2022/04/24 10:51:08;;;;;;;;;;;35.90;99.90;;;;;;5153114;27;19911;-83
2022/04/24 10:53:50;;;;;;;;;;;35.80;99.90;;;;;;5154147;27;19915;-81
2022/04/24 10:56:15;;;;;;;;;;;35.60;99.90;;;;;;5152377;27;19982;-83
2022/04/24 10:58:41;;;;;;;;;;;35.50;99.90;;;;;;5151749;27;20525;-82
2022/04/24 11:01:09;;;;;;;;;;;36.10;99.90;;;;;;5154246;27;20378;-83
2022/04/24 11:03:45;;;;;;;;;;;36.80;99.90;;;;;;5152467;27;19917;-82
2022/04/24 11:06:18;;;;;;;;;;;36.00;99.90;;;;;;5152809;27;19915;-81
2022/04/24 11:08:43;;;;;;;;;;;35.90;99.90;;;;;;5151120;27;20038;-83
2022/04/24 11:11:10;;;;;;;;;;;36.50;99.90;;;;;;5154764;27;19922;-81
2022/04/24 11:13:36;;;;;;;;;;;35.50;99.90;;;;;;5149216;27;19919;-83
2022/04/24 11:16:02;;;;;;;;;;;35.70;99.90;;;;;;5148780;27;19922;-83
2022/04/24 11:18:27;;;;;;;;;;;35.30;99.90;;;;;;5154257;27;19911;-82
2022/04/24 11:20:58;;;;;;;;;;;34.30;99.90;;;;;;5152224;27;19911;-82
2022/04/24 11:23:27;;;;;;;;;;;33.50;99.90;;;;;;5150401;27;19918;-83
2022/04/24 11:25:53;;;;;;;;;;;34.10;99.90;;;;;;5149179;27;20624;-80
2022/04/24 11:28:19;;;;;;;;;;;33.80;99.90;;;;;;5151810;27;20465;-82
2022/04/24 11:30:45;;;;;;;;;;;34.20;99.90;;;;;;5137570;27;19919;-84
2022/04/24 11:33:10;;;;;;;;;;;34.10;99.90;;;;;;5143588;27;19926;-83
2022/04/24 11:35:37;;;;;;;;;;;33.50;99.90;;;;;;5149977;27;20398;-82
2022/04/24 11:38:03;;;;;;;;;;;33.40;99.90;;;;;;5151335;27;19926;-82
2022/04/24 11:40:29;;;;;;;;;;;32.60;99.90;;;;;;5152679;27;19911;-81
2022/04/24 11:43:04;;;;;;;;;;;32.90;99.90;;;;;;5149891;27;19998;-80
2022/04/24 11:51:10;;;;;;;;;;;32.80;99.90;;;;;;5147654;27;19954;-80
2022/04/24 11:53:36;;;;;;;;;;;32.20;99.90;;;;;;5151044;27;20506;-81
2022/04/24 11:56:01;;;;;;;;;;;32.40;99.90;;;;;;5150911;27;19918;-81
2022/04/24 11:58:31;;;;;;;;;;;32.10;99.90;;;;;;5150593;27;19919;-82
2022/04/24 12:00:58;;;;;;;;;;;31.80;99.90;;;;;;5148659;27;19982;-83
2022/04/24 12:03:24;;;;;;;;;;;32.00;99.90;;;;;;5147837;27;19923;-82
2022/04/24 12:05:56;;;;;;;;;;;32.10;99.90;;;;;;5149282;27;19915;-81
2022/04/24 12:08:22;;;;;;;;;;;30.90;99.90;;;;;;5150669;27;19911;-82
2022/04/24 12:10:48;;;;;;;;;;;30.60;99.90;;;;;;5150834;27;20006;-83
2022/04/24 12:13:15;;;;;;;;;;;30.60;99.90;;;;;;5133370;27;19911;-79
2022/04/24 12:15:49;;;;;;;;;;;31.30;99.90;;;;;;5150043;27;19918;-78
2022/04/24 12:18:19;;;;;;;;;;;31.20;99.90;;;;;;5149445;27;19919;-79
2022/04/24 12:20:45;;;;;;;;;;;32.40;99.90;;;;;;5135105;27;19911;-79
2022/04/24 12:23:11;;;;;;;;;;;32.90;99.90;;;;;;5151559;27;19987;-78
2022/04/24 12:25:56;;;;;;;;;;;33.20;99.90;;;;;;5154123;27;20406;-79
2022/04/24 12:28:28;;;;;;;;;;;32.90;99.90;;;;;;5153341;27;19991;-79
2022/04/24 12:30:56;;;;;;;;;;;33.50;99.90;;;;;;5151535;27;19922;-78
2022/04/24 12:33:21;;;;;;;;;;;33.80;99.90;;;;;;5132525;27;20274;-79
2022/04/24 12:35:47;;;;;;;;;;;33.50;99.90;;;;;;5146143;27;19915;-79
2022/04/24 12:38:13;;;;;;;;;;;32.70;99.90;;;;;;5150049;27;19970;-78
2022/04/24 12:40:38;;;;;;;;;;;32.50;99.90;;;;;;5153518;27;19971;-78
2022/04/24 12:43:05;;;;;;;;;;;31.80;99.90;;;;;;5152875;27;19915;-79
2022/04/24 12:45:32;;;;;;;;;;;32.00;99.90;;;;;;5147855;27;19922;-79
2022/04/24 12:47:57;;;;;;;;;;;32.50;99.90;;;;;;5134324;27;19915;-78
2022/04/24 12:50:23;;;;;;;;;;;32.30;99.90;;;;;;5211195;22;20406;-83
2022/04/24 12:52:49;;;;;;;;;;;31.10;99.90;;;;;;5122811;28;19916;-83
2022/04/24 12:55:14;;;;;;;;;;;31.00;99.90;;;;;;5108867;28;20007;-83
2022/04/24 12:57:40;;;;;;;;;;;30.30;99.90;;;;;;5127237;28;19911;-83
2022/04/24 13:00:07;;;;;;;;;;;29.10;99.90;;;;;;5123560;28;19916;-82
2022/04/24 13:02:33;;;;;;;;;;;28.50;99.90;;;;;;5091666;28;19923;-82
2022/04/24 13:04:58;;;;;;;;;;;27.90;99.90;;;;;;5108915;28;19920;-82
2022/04/24 13:07:25;;;;;;;;;;;28.60;99.90;;;;;;5104465;28;19942;-83
2022/04/24 13:09:51;;;;;;;;;;;29.20;99.90;;;;;;5109637;28;19916;-82
2022/04/24 13:12:16;;;;;;;;;;;28.80;99.90;;;;;;5113766;28;19942;-83
2022/04/24 13:14:42;;;;;;;;;;;28.60;99.90;;;;;;5107780;28;19973;-83
2022/04/24 13:19:51;;;;;;;;;;;29.10;99.90;;;;;;5110983;28;19925;-82
2022/04/24 13:22:17;;;;;;;;;;;29.80;99.90;;;;;;5111487;28;19956;-82
2022/04/24 13:24:43;;;;;;;;;;;29.70;99.90;;;;;;5108707;28;19920;-83
2022/04/24 13:27:08;;;;;;;;;;;29.70;99.90;;;;;;5106584;28;20814;-83
2022/04/24 13:29:34;;;;;;;;;;;29.20;99.90;;;;;;5108084;28;19923;-80
2022/04/24 13:32:00;;;;;;;;;;;28.50;99.90;;;;;;5106820;28;19919;-83
2022/04/24 13:34:25;;;;;;;;;;;27.50;99.90;;;;;;5094032;28;19916;-82
2022/04/24 13:38:17;;;;;;;;;;;27.70;99.90;;;;;;5109970;28;19912;-83
2022/04/24 13:39:36;;;;;;;;;;;27.90;99.90;;;;;;5106117;28;19919;-82
2022/04/24 13:42:02;;;;;;;;;;;28.30;99.90;;;;;;5110275;28;19956;-83
2022/04/24 13:44:28;;;;;;;;;;;28.60;99.90;;;;;;5108282;28;19960;-82
2022/04/24 13:46:53;;;;;;;;;;;28.50;99.90;;;;;;5107145;28;19916;-82
2022/04/24 13:49:20;;;;;;;;;;;28.20;99.90;;;;;;5112373;28;19912;-83
2022/04/24 13:51:45;;;;;;;;;;;27.60;99.90;;;;;;5105603;28;19916;-82
2022/04/24 13:54:12;;;;;;;;;;;28.00;99.90;;;;;;5106232;28;19916;-82
2022/04/24 13:56:38;;;;;;;;;;;27.60;99.90;;;;;;5103702;28;19916;-82
2022/04/24 13:59:04;;;;;;;;;;;27.60;99.90;;;;;;5104394;28;19920;-82
2022/04/24 14:01:30;;;;;;;;;;;27.40;99.90;;;;;;5107560;28;19912;-82
2022/04/24 14:03:56;;;;;;;;;;;28.10;99.90;;;;;;5105187;28;19912;-82
2022/04/24 14:06:22;;;;;;;;;;;28.20;99.90;;;;;;5109815;28;20296;-83
2022/04/24 14:08:47;;;;;;;;;;;28.10;99.90;;;;;;5103228;28;19916;-82
2022/04/24 14:11:12;;;;;;;;;;;28.30;99.90;;;;;;5109860;28;19920;-83
2022/04/24 14:13:38;;;;;;;;;;;28.80;99.90;;;;;;5104249;28;19920;-83
2022/04/24 14:16:04;;;;;;;;;;;28.70;99.90;;;;;;5085133;28;19922;-82
2022/04/24 14:18:30;;;;;;;;;;;28.90;99.90;;;;;;5105630;28;20005;-84
2022/04/24 14:20:56;;;;;;;;;;;29.00;99.90;;;;;;5103341;28;19935;-82
2022/04/24 14:23:21;;;;;;;;;;;29.10;99.90;;;;;;5109446;28;19912;-83
2022/04/24 14:25:47;;;;;;;;;;;28.20;99.90;;;;;;5102402;28;19916;-82
2022/04/24 14:28:12;;;;;;;;;;;27.20;99.90;;;;;;5106268;28;19912;-82